createdAt,value
2018-10-12T07:40:05.523Z,22.71
2018-10-12T07:42:10.050Z,24.04
2018-10-12T07:45:55.543Z,23.25
2018-10-12T07:46:29.297Z,23.49
2018-10-12T07:47:03.088Z,22.94
2018-10-12T07:47:36.815Z,23.00
2018-10-12T07:48:10.658Z,23.01
2018-10-12T07:48:44.345Z,23.02
2018-10-12T07:49:18.146Z,23.75
2018-10-12T07:49:52.945Z,23.76
2018-10-12T07:50:26.748Z,24.28
2018-10-12T07:51:00.827Z,23.93
2018-10-12T07:51:34.574Z,23.86
2018-10-12T07:54:38.377Z,24.13
2018-10-12T07:57:42.263Z,24.95
2018-10-12T08:00:47.635Z,26.46
2018-10-12T08:03:51.509Z,26.50
2018-10-12T08:06:55.311Z,26.51
2018-10-12T08:09:59.121Z,27.08
2018-10-12T08:13:02.973Z,27.11
2018-10-12T08:16:06.841Z,26.38
2018-10-12T08:19:11.953Z,26.68
2018-10-12T08:22:15.745Z,26.57
2018-10-12T08:25:19.601Z,26.71
2018-10-12T08:28:23.411Z,26.03
2018-10-12T08:31:27.359Z,26.61
2018-10-12T08:34:31.090Z,26.91
2018-10-12T08:37:34.932Z,27.52
2018-10-12T08:40:39.091Z,26.68
2018-10-12T08:43:42.895Z,26.40
2018-10-12T08:46:46.858Z,26.81
2018-10-12T08:49:50.700Z,27.80
2018-10-12T08:52:54.548Z,26.95
2018-10-12T08:55:58.393Z,28.49
2018-10-12T08:59:02.301Z,29.10
2018-10-12T09:02:06.618Z,27.08
2018-10-12T09:05:10.506Z,27.62
2018-10-12T09:08:14.302Z,27.24
2018-10-12T09:11:18.074Z,27.89
2018-10-12T09:14:21.969Z,29.55
2018-10-12T09:17:26.860Z,29.23
2018-10-12T09:20:30.733Z,28.82
2018-10-12T09:23:34.564Z,28.52
2018-10-12T09:26:38.357Z,29.18
2018-10-12T09:29:42.166Z,28.52
2018-10-12T09:32:45.932Z,28.76
2018-10-12T09:35:49.777Z,28.79
2018-10-12T09:38:53.549Z,28.55
2018-10-12T09:41:57.426Z,29.51
2018-10-12T09:45:01.151Z,30.90
2018-10-12T09:48:05.149Z,29.95
2018-10-12T09:51:09.058Z,29.56
2018-10-12T09:54:12.932Z,29.29
2018-10-12T09:57:22.260Z,29.07
2018-10-12T10:00:31.573Z,29.00
2018-10-12T10:03:40.765Z,29.32
2018-10-12T10:06:44.573Z,29.54
2018-10-12T10:09:48.322Z,28.93
2018-10-12T10:12:52.141Z,29.08
2018-10-12T10:15:55.928Z,28.82
2018-10-12T10:18:59.684Z,29.79
2018-10-12T10:22:03.965Z,29.61
2018-10-12T10:25:07.767Z,30.30
2018-10-12T10:28:11.480Z,30.61
2018-10-12T10:31:15.253Z,30.81
2018-10-12T10:34:19.102Z,30.37
2018-10-12T10:37:22.839Z,30.45
2018-10-12T10:40:26.808Z,29.26
2018-10-12T10:43:30.574Z,29.59
2018-10-12T10:46:34.385Z,29.87
2018-10-12T10:49:38.482Z,30.54
2018-10-12T10:52:42.238Z,28.99
2018-10-12T10:55:46.045Z,27.29
2018-10-12T10:58:49.879Z,28.75
2018-10-12T11:01:53.637Z,29.13
2018-10-12T11:04:57.461Z,29.34
2018-10-12T11:08:01.311Z,28.42
2018-10-12T11:11:05.062Z,27.58
2018-10-12T11:14:08.830Z,27.18
2018-10-12T11:17:12.730Z,28.49
2018-10-12T11:20:16.489Z,28.97
2018-10-12T11:23:20.269Z,29.20
2018-10-12T11:26:24.104Z,29.80
2018-10-12T11:29:27.854Z,31.92
2018-10-12T11:32:31.919Z,29.82
2018-10-12T11:35:35.709Z,30.02
2018-10-12T11:38:39.502Z,29.71
2018-10-12T11:41:43.293Z,30.37
2018-10-12T11:44:47.121Z,29.86
2018-10-12T11:47:50.898Z,29.86
2018-10-12T11:50:54.663Z,30.04
2018-10-12T11:53:58.409Z,30.19
2018-10-12T11:57:02.193Z,31.98
2018-10-12T12:00:06.253Z,31.15
2018-10-12T12:03:09.986Z,30.90
2018-10-12T12:06:14.308Z,30.62
2018-10-12T12:09:18.164Z,30.81
2018-10-12T12:12:21.995Z,31.08
2018-10-12T12:15:25.809Z,30.39
2018-10-12T12:18:29.577Z,30.79
2018-10-12T12:21:33.365Z,29.85
2018-10-12T12:24:37.141Z,30.24
2018-10-12T12:27:41.874Z,30.40
2018-10-12T12:30:46.265Z,31.26
2018-10-12T12:33:50.074Z,30.07
2018-10-12T12:36:53.860Z,29.36
2018-10-12T12:39:57.923Z,29.43
2018-10-12T12:43:01.756Z,28.44
2018-10-12T12:46:05.588Z,27.58
2018-10-12T12:49:09.635Z,27.17
2018-10-12T12:52:14.138Z,26.67
2018-10-12T12:55:18.910Z,26.46
2018-10-12T12:58:22.713Z,26.31
2018-10-12T13:01:26.500Z,25.99
2018-10-12T13:04:30.269Z,25.59
2018-10-12T13:07:34.077Z,26.16
2018-10-12T13:10:38.010Z,25.90
2018-10-12T13:13:41.825Z,25.99
2018-10-12T13:16:46.230Z,25.76
2018-10-12T13:19:49.982Z,25.54
2018-10-12T13:22:53.794Z,25.54
2018-10-12T13:25:57.641Z,25.63
2018-10-12T13:29:01.370Z,25.82
2018-10-12T13:32:05.399Z,25.67
2018-10-12T13:35:09.023Z,25.56
2018-10-12T13:38:12.833Z,25.51
2018-10-12T13:41:16.890Z,25.60
2018-10-12T13:44:20.669Z,25.46
2018-10-12T13:47:24.481Z,25.47
2018-10-12T13:50:28.321Z,25.49
2018-10-12T13:53:32.266Z,25.43
2018-10-12T13:56:36.069Z,25.39
2018-10-12T13:59:39.873Z,25.23
2018-10-12T14:02:43.672Z,25.28
2018-10-12T14:05:47.543Z,25.39
2018-10-12T14:08:51.287Z,25.33
2018-10-12T14:11:55.082Z,25.41
2018-10-12T14:14:58.897Z,25.31
2018-10-12T14:18:02.778Z,25.20
2018-10-12T14:21:06.500Z,25.20
2018-10-12T14:24:10.300Z,25.14
2018-10-12T14:27:14.103Z,25.08
2018-10-12T14:30:17.869Z,25.03
2018-10-12T14:33:21.629Z,25.00
2018-10-12T14:36:25.409Z,25.04
2018-10-12T14:39:29.312Z,25.06
2018-10-12T14:42:33.239Z,25.09
2018-10-12T14:45:37.046Z,24.94
2018-10-12T14:48:41.045Z,24.92
2018-10-12T14:51:44.844Z,24.94
2018-10-12T14:54:48.631Z,24.80
2018-10-12T14:57:52.410Z,24.85
2018-10-12T15:00:56.200Z,24.82
2018-10-12T15:03:59.956Z,24.82
2018-10-12T15:07:03.757Z,24.71
2018-10-12T15:10:07.870Z,24.79
2018-10-12T15:13:11.649Z,24.64
2018-10-12T15:16:15.410Z,24.56
2018-10-12T15:19:19.239Z,24.72
2018-10-12T15:22:22.989Z,24.65
2018-10-12T15:25:26.775Z,24.64
2018-10-12T15:28:30.632Z,24.62
2018-10-12T15:31:34.405Z,24.51
2018-10-12T15:34:38.221Z,24.47
2018-10-12T15:37:42.712Z,24.51
2018-10-12T15:40:46.661Z,24.54
2018-10-12T15:43:50.497Z,24.38
2018-10-12T15:46:54.387Z,24.27
2018-10-12T15:49:58.168Z,24.34
2018-10-12T15:53:01.969Z,24.26
2018-10-12T15:56:06.407Z,24.18
2018-10-12T15:59:10.117Z,24.21
2018-10-12T16:02:14.211Z,24.17
2018-10-12T16:05:17.998Z,24.15
2018-10-12T16:08:22.040Z,24.11
2018-10-12T16:11:26.072Z,24.07
2018-10-12T16:14:29.920Z,23.97
2018-10-12T16:17:33.639Z,23.94
2018-10-12T16:20:37.417Z,23.97
2018-10-12T16:23:41.210Z,23.88
2018-10-12T16:26:45.009Z,23.89
2018-10-12T16:29:48.858Z,23.76
2018-10-12T16:32:52.677Z,23.78
2018-10-12T16:35:57.551Z,23.75
2018-10-12T16:39:01.214Z,23.76
2018-10-12T16:42:04.977Z,23.74
2018-10-12T16:45:09.229Z,23.74
2018-10-12T16:48:13.497Z,23.67
2018-10-12T16:51:17.390Z,23.63
2018-10-12T16:54:21.174Z,23.60
2018-10-12T16:57:31.912Z,23.52
2018-10-12T17:00:37.965Z,23.48
2018-10-12T17:03:42.102Z,23.44
2018-10-12T17:06:45.927Z,23.43
2018-10-12T17:09:49.692Z,23.33
2018-10-12T17:12:53.490Z,23.30
2018-10-12T17:15:57.327Z,23.28
2018-10-12T17:19:01.147Z,23.19
2018-10-12T17:22:04.926Z,23.17
2018-10-12T17:25:08.911Z,23.21
2018-10-12T17:28:12.677Z,23.13
2018-10-12T17:31:16.425Z,23.13
2018-10-12T17:34:20.281Z,23.13
2018-10-12T17:37:24.038Z,23.07
2018-10-12T17:40:27.808Z,23.01
2018-10-12T17:43:31.567Z,22.93
2018-10-12T17:46:35.378Z,22.94
2018-10-12T17:49:39.174Z,22.93
2018-10-12T17:52:42.964Z,22.99
2018-10-12T17:55:46.805Z,22.93
2018-10-12T17:58:52.004Z,22.93
2018-10-12T18:01:55.766Z,22.68
2018-10-12T18:04:59.620Z,22.81
2018-10-12T18:08:03.436Z,22.80
2018-10-12T18:11:07.486Z,22.74
2018-10-12T18:14:11.229Z,22.81
2018-10-12T18:17:16.103Z,22.66
2018-10-12T18:20:19.877Z,22.74
2018-10-12T18:23:23.649Z,22.58
2018-10-12T18:26:27.439Z,22.70
2018-10-12T18:29:31.352Z,22.49
2018-10-12T18:32:35.133Z,22.43
2018-10-12T18:35:38.973Z,22.48
2018-10-12T18:38:42.821Z,22.39
2018-10-12T18:41:46.645Z,22.40
2018-10-12T18:44:50.449Z,22.31
2018-10-12T18:47:55.050Z,22.39
2018-10-12T18:50:58.882Z,22.37
2018-10-12T18:54:02.766Z,22.40
2018-10-12T18:57:06.508Z,22.41
2018-10-12T19:00:10.413Z,22.33
2018-10-12T19:03:14.081Z,22.26
2018-10-12T19:06:17.865Z,22.39
2018-10-12T19:09:21.646Z,22.38
2018-10-12T19:12:25.764Z,22.39
2018-10-12T19:58:37.246Z,24.78
2018-10-12T20:01:41.313Z,23.83
2018-10-12T20:04:45.195Z,23.02
2018-10-12T20:07:49.048Z,23.17
2018-10-12T20:10:52.869Z,22.91
2018-10-12T20:13:57.285Z,22.89
2018-10-12T20:17:01.119Z,23.04
2018-10-12T20:20:05.214Z,22.83
2018-10-12T20:23:09.092Z,22.46
2018-10-12T20:26:12.891Z,22.50
2018-10-12T20:29:16.733Z,22.45
2018-10-12T20:32:20.505Z,22.65
2018-10-12T20:35:24.359Z,22.52
2018-10-12T20:38:28.195Z,22.60
2018-10-12T20:41:32.079Z,22.23
2018-10-12T20:44:35.986Z,22.30
2018-10-12T20:47:39.840Z,22.63
2018-10-12T20:50:43.827Z,22.49
2018-10-12T20:53:47.644Z,22.38
2018-10-12T20:56:51.715Z,22.08
2018-10-12T20:59:55.515Z,22.50
2018-10-12T21:02:59.308Z,22.31
2018-10-12T21:06:03.145Z,22.06
2018-10-12T21:09:08.948Z,22.06
2018-10-12T21:12:12.731Z,22.19
2018-10-12T21:15:16.652Z,22.18
2018-10-12T21:18:20.480Z,21.81
2018-10-12T21:21:24.337Z,22.20
2018-10-12T21:24:28.214Z,22.17
2018-10-12T21:27:32.993Z,21.91
2018-10-12T21:30:36.804Z,21.93
2018-10-12T21:33:41.232Z,22.03
2018-10-12T21:36:45.231Z,21.57
2018-10-12T21:39:48.988Z,21.89
2018-10-12T21:42:54.035Z,21.96
2018-10-12T21:45:57.842Z,21.82
2018-10-12T21:49:01.659Z,21.68
2018-10-12T21:52:06.600Z,21.94
2018-10-12T21:55:10.427Z,21.51
2018-10-12T21:58:14.502Z,21.63
2018-10-12T22:01:18.282Z,21.28
2018-10-12T22:04:27.909Z,21.60
2018-10-12T22:07:31.805Z,21.51
2018-10-12T22:10:35.752Z,21.65
2018-10-12T22:13:39.596Z,21.66
2018-10-12T22:16:43.380Z,21.52
2018-10-12T22:19:47.179Z,21.56
2018-10-12T22:22:51.192Z,21.46
2018-10-12T22:25:55.051Z,21.33
2018-10-12T22:28:58.974Z,21.43
2018-10-12T22:32:02.797Z,21.52
2018-10-12T22:35:07.554Z,21.32
2018-10-12T22:38:11.450Z,21.39
2018-10-12T22:41:16.929Z,21.57
2018-10-12T22:44:20.711Z,21.24
2018-10-12T22:47:24.537Z,21.36
2018-10-12T22:50:28.318Z,21.44
2018-10-12T22:53:32.178Z,21.46
2018-10-12T22:56:36.062Z,21.11
2018-10-12T22:59:39.953Z,21.29
2018-10-12T23:02:44.378Z,21.52
2018-10-12T23:05:48.173Z,21.59
2018-10-12T23:08:52.142Z,21.56
2018-10-12T23:11:55.936Z,21.58
2018-10-12T23:14:59.910Z,21.64
2018-10-12T23:18:03.863Z,21.53
2018-10-12T23:21:08.215Z,21.57
2018-10-12T23:24:13.941Z,21.46
2018-10-12T23:27:17.766Z,21.54
2018-10-12T23:30:21.602Z,21.38
2018-10-12T23:33:36.755Z,21.50
2018-10-12T23:36:40.558Z,21.60
2018-10-12T23:39:44.440Z,21.44
2018-10-12T23:42:48.288Z,21.48
2018-10-12T23:45:52.193Z,21.52
2018-10-12T23:48:56.584Z,21.41
2018-10-12T23:52:00.316Z,21.53
2018-10-12T23:55:04.113Z,21.51
2018-10-12T23:58:09.046Z,21.47
